sensor_id;sensor_type;location;lat;lon;timestamp;temperature;humidity
51739;DHT22;37815;52.692;6.226;2023-04-26T00:04:58;10.70;91.80
51739;DHT22;37815;52.692;6.226;2023-04-26T00:10:01;10.70;91.90
51739;DHT22;37815;52.692;6.226;2023-04-26T00:15:05;10.60;91.80
51739;DHT22;37815;52.692;6.226;2023-04-26T00:20:11;10.60;91.80
51739;DHT22;37815;52.692;6.226;2023-04-26T00:25:12;10.60;91.80
51739;DHT22;37815;52.692;6.226;2023-04-26T00:30:13;10.60;91.90
51739;DHT22;37815;52.692;6.226;2023-04-26T00:35:14;10.60;91.90
51739;DHT22;37815;52.692;6.226;2023-04-26T00:40:15;10.60;91.90
51739;DHT22;37815;52.692;6.226;2023-04-26T00:45:16;10.60;91.90
51739;DHT22;37815;52.692;6.226;2023-04-26T00:50:17;10.50;91.80
51739;DHT22;37815;52.692;6.226;2023-04-26T00:55:20;10.50;91.80
51739;DHT22;37815;52.692;6.226;2023-04-26T01:00:21;10.50;91.80
51739;DHT22;37815;52.692;6.226;2023-04-26T01:05:22;10.50;91.80
51739;DHT22;37815;52.692;6.226;2023-04-26T01:10:23;10.50;91.80
51739;DHT22;37815;52.692;6.226;2023-04-26T01:15:25;10.50;91.90
51739;DHT22;37815;52.692;6.226;2023-04-26T01:20:27;10.50;91.90
51739;DHT22;37815;52.692;6.226;2023-04-26T01:25:27;10.40;91.90
51739;DHT22;37815;52.692;6.226;2023-04-26T01:30:28;10.40;91.90
51739;DHT22;37815;52.692;6.226;2023-04-26T01:35:29;10.40;91.90
51739;DHT22;37815;52.692;6.226;2023-04-26T01:40:29;10.40;91.90
51739;DHT22;37815;52.692;6.226;2023-04-26T01:45:30;10.40;91.90
51739;DHT22;37815;52.692;6.226;2023-04-26T01:50:31;10.40;91.90
51739;DHT22;37815;52.692;6.226;2023-04-26T01:55:35;10.30;91.90
51739;DHT22;37815;52.692;6.226;2023-04-26T02:00:36;10.30;91.90
51739;DHT22;37815;52.692;6.226;2023-04-26T02:05:37;10.30;91.90
51739;DHT22;37815;52.692;6.226;2023-04-26T02:10:37;10.30;92.00
51739;DHT22;37815;52.692;6.226;2023-04-26T02:15:38;10.30;92.00
51739;DHT22;37815;52.692;6.226;2023-04-26T02:20:40;10.20;92.00
51739;DHT22;37815;52.692;6.226;2023-04-26T02:25:45;10.20;92.00
51739;DHT22;37815;52.692;6.226;2023-04-26T02:30:49;10.20;92.00
51739;DHT22;37815;52.692;6.226;2023-04-26T02:35:50;10.20;92.00
51739;DHT22;37815;52.692;6.226;2023-04-26T02:41:00;10.20;92.00
51739;DHT22;37815;52.692;6.226;2023-04-26T02:46:01;10.10;92.00
51739;DHT22;37815;52.692;6.226;2023-04-26T02:51:01;10.10;92.00
51739;DHT22;37815;52.692;6.226;2023-04-26T02:56:02;10.10;92.00
51739;DHT22;37815;52.692;6.226;2023-04-26T03:01:03;10.10;92.00
51739;DHT22;37815;52.692;6.226;2023-04-26T03:06:03;10.00;92.00
51739;DHT22;37815;52.692;6.226;2023-04-26T03:11:04;10.10;92.00
51739;DHT22;37815;52.692;6.226;2023-04-26T03:16:05;10.10;92.00
51739;DHT22;37815;52.692;6.226;2023-04-26T03:21:06;10.00;92.00
51739;DHT22;37815;52.692;6.226;2023-04-26T03:26:06;10.00;92.00
51739;DHT22;37815;52.692;6.226;2023-04-26T03:31:07;10.00;92.00
51739;DHT22;37815;52.692;6.226;2023-04-26T03:36:08;10.00;92.00
51739;DHT22;37815;52.692;6.226;2023-04-26T03:41:08;10.00;92.00
51739;DHT22;37815;52.692;6.226;2023-04-26T03:46:10;10.00;92.00
51739;DHT22;37815;52.692;6.226;2023-04-26T03:51:11;10.00;92.00
51739;DHT22;37815;52.692;6.226;2023-04-26T03:56:11;10.00;92.00
51739;DHT22;37815;52.692;6.226;2023-04-26T04:01:12;10.00;92.00
51739;DHT22;37815;52.692;6.226;2023-04-26T04:06:13;10.00;92.00
51739;DHT22;37815;52.692;6.226;2023-04-26T04:11:13;10.00;92.00
51739;DHT22;37815;52.692;6.226;2023-04-26T04:16:14;10.00;92.00
51739;DHT22;37815;52.692;6.226;2023-04-26T04:21:14;10.00;92.00
51739;DHT22;37815;52.692;6.226;2023-04-26T04:26:15;10.00;92.00
51739;DHT22;37815;52.692;6.226;2023-04-26T04:31:16;9.90;92.00
51739;DHT22;37815;52.692;6.226;2023-04-26T04:36:17;9.90;92.00
51739;DHT22;37815;52.692;6.226;2023-04-26T04:41:18;9.90;92.00
51739;DHT22;37815;52.692;6.226;2023-04-26T04:46:21;9.90;92.00
51739;DHT22;37815;52.692;6.226;2023-04-26T04:51:22;9.90;92.10
51739;DHT22;37815;52.692;6.226;2023-04-26T04:56:23;9.90;92.10
51739;DHT22;37815;52.692;6.226;2023-04-26T05:01:25;9.90;92.10
51739;DHT22;37815;52.692;6.226;2023-04-26T05:06:26;9.90;92.10
51739;DHT22;37815;52.692;6.226;2023-04-26T05:11:27;9.90;92.10
51739;DHT22;37815;52.692;6.226;2023-04-26T05:16:27;9.90;92.10
51739;DHT22;37815;52.692;6.226;2023-04-26T05:21:28;9.80;92.00
51739;DHT22;37815;52.692;6.226;2023-04-26T05:26:29;9.90;92.00
51739;DHT22;37815;52.692;6.226;2023-04-26T05:31:29;9.90;92.00
51739;DHT22;37815;52.692;6.226;2023-04-26T05:36:30;9.90;92.00
51739;DHT22;37815;52.692;6.226;2023-04-26T05:41:32;9.90;92.00
51739;DHT22;37815;52.692;6.226;2023-04-26T05:46:32;9.90;92.00
51739;DHT22;37815;52.692;6.226;2023-04-26T05:51:33;9.90;92.00
51739;DHT22;37815;52.692;6.226;2023-04-26T05:56:33;9.90;91.90
51739;DHT22;37815;52.692;6.226;2023-04-26T06:01:34;9.90;91.90
51739;DHT22;37815;52.692;6.226;2023-04-26T06:06:35;10.00;91.90
51739;DHT22;37815;52.692;6.226;2023-04-26T06:11:36;9.90;91.90
51739;DHT22;37815;52.692;6.226;2023-04-26T06:16:36;10.00;91.90
51739;DHT22;37815;52.692;6.226;2023-04-26T06:21:37;10.00;91.80
51739;DHT22;37815;52.692;6.226;2023-04-26T06:26:38;10.00;91.80
51739;DHT22;37815;52.692;6.226;2023-04-26T06:31:38;10.00;91.80
51739;DHT22;37815;52.692;6.226;2023-04-26T06:36:39;10.10;91.80
51739;DHT22;37815;52.692;6.226;2023-04-26T06:41:39;10.10;91.80
51739;DHT22;37815;52.692;6.226;2023-04-26T06:46:40;10.10;91.80
51739;DHT22;37815;52.692;6.226;2023-04-26T06:51:41;10.10;91.80
51739;DHT22;37815;52.692;6.226;2023-04-26T06:56:42;10.20;91.80
51739;DHT22;37815;52.692;6.226;2023-04-26T07:01:42;10.10;91.70
51739;DHT22;37815;52.692;6.226;2023-04-26T07:06:43;10.20;91.70
51739;DHT22;37815;52.692;6.226;2023-04-26T07:11:47;10.20;91.60
51739;DHT22;37815;52.692;6.226;2023-04-26T07:16:47;10.20;91.60
51739;DHT22;37815;52.692;6.226;2023-04-26T07:21:48;10.30;91.60
51739;DHT22;37815;52.692;6.226;2023-04-26T07:26:48;10.30;91.60
51739;DHT22;37815;52.692;6.226;2023-04-26T07:31:49;10.30;91.60
51739;DHT22;37815;52.692;6.226;2023-04-26T07:36:50;10.30;91.50
51739;DHT22;37815;52.692;6.226;2023-04-26T07:41:51;10.40;91.50
51739;DHT22;37815;52.692;6.226;2023-04-26T07:46:51;10.40;91.50
51739;DHT22;37815;52.692;6.226;2023-04-26T07:51:52;10.40;91.50
51739;DHT22;37815;52.692;6.226;2023-04-26T07:56:52;10.50;91.50
51739;DHT22;37815;52.692;6.226;2023-04-26T08:01:53;10.50;91.50
51739;DHT22;37815;52.692;6.226;2023-04-26T08:06:54;10.50;91.40
51739;DHT22;37815;52.692;6.226;2023-04-26T08:11:56;10.60;91.40
51739;DHT22;37815;52.692;6.226;2023-04-26T08:16:57;10.60;91.40
51739;DHT22;37815;52.692;6.226;2023-04-26T08:21:57;10.70;91.40
51739;DHT22;37815;52.692;6.226;2023-04-26T08:26:58;10.70;91.40
51739;DHT22;37815;52.692;6.226;2023-04-26T08:31:59;10.70;91.30
51739;DHT22;37815;52.692;6.226;2023-04-26T08:36:59;10.80;91.30
51739;DHT22;37815;52.692;6.226;2023-04-26T08:42:13;10.80;91.30
51739;DHT22;37815;52.692;6.226;2023-04-26T08:52:17;10.10;91.10
51739;DHT22;37815;52.692;6.226;2023-04-26T08:57:23;10.90;91.30
51739;DHT22;37815;52.692;6.226;2023-04-26T09:02:24;10.90;91.30
51739;DHT22;37815;52.692;6.226;2023-04-26T09:07:44;11.00;91.30
51739;DHT22;37815;52.692;6.226;2023-04-26T09:12:45;11.00;91.30
51739;DHT22;37815;52.692;6.226;2023-04-26T09:17:45;11.00;91.30
51739;DHT22;37815;52.692;6.226;2023-04-26T09:22:46;11.10;91.30
51739;DHT22;37815;52.692;6.226;2023-04-26T09:27:47;11.10;91.20
51739;DHT22;37815;52.692;6.226;2023-04-26T09:33:06;11.20;91.20
51739;DHT22;37815;52.692;6.226;2023-04-26T09:38:12;11.20;91.20
51739;DHT22;37815;52.692;6.226;2023-04-26T09:43:18;11.20;91.20
51739;DHT22;37815;52.692;6.226;2023-04-26T09:48:29;11.20;91.30
51739;DHT22;37815;52.692;6.226;2023-04-26T09:53:36;11.10;91.30
51739;DHT22;37815;52.692;6.226;2023-04-26T10:04:00;11.10;91.40
51739;DHT22;37815;52.692;6.226;2023-04-26T10:09:01;11.10;91.40
51739;DHT22;37815;52.692;6.226;2023-04-26T10:14:03;11.10;91.40
51739;DHT22;37815;52.692;6.226;2023-04-26T10:19:04;11.10;91.40
51739;DHT22;37815;52.692;6.226;2023-04-26T10:24:06;11.10;91.50
51739;DHT22;37815;52.692;6.226;2023-04-26T10:29:07;11.10;91.50
51739;DHT22;37815;52.692;6.226;2023-04-26T10:34:18;11.20;91.50
51739;DHT22;37815;52.692;6.226;2023-04-26T10:39:19;11.20;91.40
51739;DHT22;37815;52.692;6.226;2023-04-26T10:44:40;11.20;91.40
51739;DHT22;37815;52.692;6.226;2023-04-26T10:49:45;11.20;91.40
51739;DHT22;37815;52.692;6.226;2023-04-26T10:54:49;11.20;91.50
51739;DHT22;37815;52.692;6.226;2023-04-26T11:05:52;11.20;91.60
51739;DHT22;37815;52.692;6.226;2023-04-26T11:11:06;11.20;91.60
51739;DHT22;37815;52.692;6.226;2023-04-26T11:16:14;11.20;91.40
51739;DHT22;37815;52.692;6.226;2023-04-26T11:21:15;11.20;90.10
51739;DHT22;37815;52.692;6.226;2023-04-26T11:26:18;11.00;89.40
51739;DHT22;37815;52.692;6.226;2023-04-26T11:31:19;11.00;88.60
51739;DHT22;37815;52.692;6.226;2023-04-26T11:36:21;11.20;87.90
51739;DHT22;37815;52.692;6.226;2023-04-26T11:41:22;11.10;86.50
51739;DHT22;37815;52.692;6.226;2023-04-26T11:46:24;10.90;86.90
51739;DHT22;37815;52.692;6.226;2023-04-26T11:51:24;10.90;87.10
51739;DHT22;37815;52.692;6.226;2023-04-26T11:56:26;11.00;86.90
51739;DHT22;37815;52.692;6.226;2023-04-26T12:01:28;11.10;85.60
51739;DHT22;37815;52.692;6.226;2023-04-26T12:06:41;11.20;83.50
51739;DHT22;37815;52.692;6.226;2023-04-26T12:11:47;10.90;81.00
51739;DHT22;37815;52.692;6.226;2023-04-26T12:16:52;10.70;83.30
51739;DHT22;37815;52.692;6.226;2023-04-26T12:21:53;10.50;83.60
51739;DHT22;37815;52.692;6.226;2023-04-26T12:26:55;10.30;84.30
51739;DHT22;37815;52.692;6.226;2023-04-26T12:31:56;10.10;84.90
51739;DHT22;37815;52.692;6.226;2023-04-26T12:36:57;10.20;85.60
51739;DHT22;37815;52.692;6.226;2023-04-26T12:41:58;10.50;85.50
51739;DHT22;37815;52.692;6.226;2023-04-26T12:46:58;11.20;85.70
51739;DHT22;37815;52.692;6.226;2023-04-26T12:51:59;10.70;85.20
51739;DHT22;37815;52.692;6.226;2023-04-26T12:56:59;10.50;85.20
51739;DHT22;37815;52.692;6.226;2023-04-26T13:02:01;10.30;85.30
51739;DHT22;37815;52.692;6.226;2023-04-26T13:07:03;10.10;86.60
51739;DHT22;37815;52.692;6.226;2023-04-26T13:12:04;10.20;87.40
51739;DHT22;37815;52.692;6.226;2023-04-26T13:17:04;10.40;87.50
51739;DHT22;37815;52.692;6.226;2023-04-26T13:22:06;10.60;87.70
51739;DHT22;37815;52.692;6.226;2023-04-26T13:27:09;10.90;87.80
51739;DHT22;37815;52.692;6.226;2023-04-26T13:32:10;10.90;87.90
51739;DHT22;37815;52.692;6.226;2023-04-26T13:37:11;10.90;88.20
51739;DHT22;37815;52.692;6.226;2023-04-26T13:42:15;11.10;88.50
51739;DHT22;37815;52.692;6.226;2023-04-26T13:47:16;11.10;88.70
51739;DHT22;37815;52.692;6.226;2023-04-26T13:52:17;11.20;88.80
51739;DHT22;37815;52.692;6.226;2023-04-26T13:57:18;11.20;88.00
51739;DHT22;37815;52.692;6.226;2023-04-26T14:02:18;10.90;86.80
51739;DHT22;37815;52.692;6.226;2023-04-26T14:07:19;10.70;87.40
51739;DHT22;37815;52.692;6.226;2023-04-26T14:12:20;10.70;87.20
51739;DHT22;37815;52.692;6.226;2023-04-26T14:17:21;10.70;86.90
51739;DHT22;37815;52.692;6.226;2023-04-26T14:22:21;10.70;86.70
51739;DHT22;37815;52.692;6.226;2023-04-26T14:27:22;10.80;86.30
51739;DHT22;37815;52.692;6.226;2023-04-26T14:32:22;10.80;86.00
51739;DHT22;37815;52.692;6.226;2023-04-26T14:37:23;10.70;86.20
51739;DHT22;37815;52.692;6.226;2023-04-26T14:42:23;10.80;86.20
51739;DHT22;37815;52.692;6.226;2023-04-26T14:47:24;10.90;85.80
51739;DHT22;37815;52.692;6.226;2023-04-26T14:52:25;11.00;84.90
51739;DHT22;37815;52.692;6.226;2023-04-26T14:57:28;10.80;84.30
51739;DHT22;37815;52.692;6.226;2023-04-26T15:02:29;10.70;86.30
51739;DHT22;37815;52.692;6.226;2023-04-26T15:07:29;10.80;85.50
51739;DHT22;37815;52.692;6.226;2023-04-26T15:12:30;11.30;84.80
51739;DHT22;37815;52.692;6.226;2023-04-26T15:17:31;11.40;83.60
51739;DHT22;37815;52.692;6.226;2023-04-26T15:22:32;11.30;83.10
51739;DHT22;37815;52.692;6.226;2023-04-26T15:27:34;11.70;82.80
51739;DHT22;37815;52.692;6.226;2023-04-26T15:32:35;12.00;81.30
51739;DHT22;37815;52.692;6.226;2023-04-26T15:37:36;11.70;80.10
51739;DHT22;37815;52.692;6.226;2023-04-26T15:42:37;11.40;80.80
51739;DHT22;37815;52.692;6.226;2023-04-26T15:47:38;11.20;81.10
51739;DHT22;37815;52.692;6.226;2023-04-26T15:52:38;11.20;81.60
51739;DHT22;37815;52.692;6.226;2023-04-26T15:57:40;11.10;81.30
51739;DHT22;37815;52.692;6.226;2023-04-26T16:02:41;11.00;80.20
51739;DHT22;37815;52.692;6.226;2023-04-26T16:07:43;10.80;80.00
51739;DHT22;37815;52.692;6.226;2023-04-26T16:12:44;10.90;80.80
51739;DHT22;37815;52.692;6.226;2023-04-26T16:17:45;10.90;79.80
51739;DHT22;37815;52.692;6.226;2023-04-26T16:22:45;10.70;79.70
51739;DHT22;37815;52.692;6.226;2023-04-26T16:27:46;10.70;79.60
51739;DHT22;37815;52.692;6.226;2023-04-26T16:32:47;10.60;79.60
51739;DHT22;37815;52.692;6.226;2023-04-26T16:37:47;10.60;78.80
51739;DHT22;37815;52.692;6.226;2023-04-26T16:42:48;10.40;77.80
51739;DHT22;37815;52.692;6.226;2023-04-26T16:47:49;10.40;78.00
51739;DHT22;37815;52.692;6.226;2023-04-26T16:52:49;10.40;77.40
51739;DHT22;37815;52.692;6.226;2023-04-26T16:57:50;10.20;77.10
51739;DHT22;37815;52.692;6.226;2023-04-26T17:02:51;10.10;78.80
51739;DHT22;37815;52.692;6.226;2023-04-26T17:07:51;9.90;80.60
51739;DHT22;37815;52.692;6.226;2023-04-26T17:12:52;9.90;82.10
51739;DHT22;37815;52.692;6.226;2023-04-26T17:17:52;10.20;82.30
51739;DHT22;37815;52.692;6.226;2023-04-26T17:22:53;10.50;82.30
51739;DHT22;37815;52.692;6.226;2023-04-26T17:27:54;10.70;82.50
51739;DHT22;37815;52.692;6.226;2023-04-26T17:32:54;10.80;82.70
51739;DHT22;37815;52.692;6.226;2023-04-26T17:37:55;10.80;83.00
51739;DHT22;37815;52.692;6.226;2023-04-26T17:42:56;10.90;82.70
51739;DHT22;37815;52.692;6.226;2023-04-26T17:47:56;10.30;82.30
51739;DHT22;37815;52.692;6.226;2023-04-26T17:52:57;9.90;83.50
51739;DHT22;37815;52.692;6.226;2023-04-26T17:57:58;9.70;84.50
51739;DHT22;37815;52.692;6.226;2023-04-26T18:02:58;10.40;85.70
51739;DHT22;37815;52.692;6.226;2023-04-26T18:08:02;9.30;85.90
51739;DHT22;37815;52.692;6.226;2023-04-26T18:13:03;9.30;86.50
51739;DHT22;37815;52.692;6.226;2023-04-26T18:18:04;10.00;87.00
51739;DHT22;37815;52.692;6.226;2023-04-26T18:23:07;9.80;86.40
51739;DHT22;37815;52.692;6.226;2023-04-26T18:28:07;10.00;86.10
51739;DHT22;37815;52.692;6.226;2023-04-26T18:33:08;10.30;86.10
51739;DHT22;37815;52.692;6.226;2023-04-26T18:38:08;10.40;86.00
51739;DHT22;37815;52.692;6.226;2023-04-26T18:43:09;10.50;86.00
51739;DHT22;37815;52.692;6.226;2023-04-26T18:48:10;10.60;86.20
51739;DHT22;37815;52.692;6.226;2023-04-26T18:53:11;10.60;86.30
51739;DHT22;37815;52.692;6.226;2023-04-26T18:58:11;10.70;86.50
51739;DHT22;37815;52.692;6.226;2023-04-26T19:03:12;10.70;86.50
51739;DHT22;37815;52.692;6.226;2023-04-26T19:08:13;10.90;86.80
51739;DHT22;37815;52.692;6.226;2023-04-26T19:13:13;10.80;86.80
51739;DHT22;37815;52.692;6.226;2023-04-26T19:18:15;10.80;86.90
51739;DHT22;37815;52.692;6.226;2023-04-26T19:23:15;10.80;87.20
51739;DHT22;37815;52.692;6.226;2023-04-26T19:28:16;10.80;87.30
51739;DHT22;37815;52.692;6.226;2023-04-26T19:33:16;10.80;87.40
51739;DHT22;37815;52.692;6.226;2023-04-26T19:38:17;10.80;87.60
51739;DHT22;37815;52.692;6.226;2023-04-26T19:43:19;10.80;87.80
51739;DHT22;37815;52.692;6.226;2023-04-26T19:48:19;10.80;87.70
51739;DHT22;37815;52.692;6.226;2023-04-26T19:53:20;10.70;87.80
51739;DHT22;37815;52.692;6.226;2023-04-26T19:58:21;10.70;88.00
51739;DHT22;37815;52.692;6.226;2023-04-26T20:03:22;10.70;88.10
51739;DHT22;37815;52.692;6.226;2023-04-26T20:08:23;10.70;88.30
51739;DHT22;37815;52.692;6.226;2023-04-26T20:13:24;10.70;88.40
51739;DHT22;37815;52.692;6.226;2023-04-26T20:18:24;10.70;88.50
51739;DHT22;37815;52.692;6.226;2023-04-26T20:23:25;10.70;88.60
51739;DHT22;37815;52.692;6.226;2023-04-26T20:28:26;10.70;88.70
51739;DHT22;37815;52.692;6.226;2023-04-26T20:33:26;10.70;88.70
51739;DHT22;37815;52.692;6.226;2023-04-26T20:38:28;10.70;88.80
51739;DHT22;37815;52.692;6.226;2023-04-26T20:43:29;10.60;88.80
51739;DHT22;37815;52.692;6.226;2023-04-26T20:48:29;10.60;88.80
51739;DHT22;37815;52.692;6.226;2023-04-26T20:53:30;10.70;88.90
51739;DHT22;37815;52.692;6.226;2023-04-26T20:58:31;10.60;88.90
51739;DHT22;37815;52.692;6.226;2023-04-26T21:03:31;10.60;88.90
51739;DHT22;37815;52.692;6.226;2023-04-26T21:08:33;10.60;89.00
51739;DHT22;37815;52.692;6.226;2023-04-26T21:13:34;10.60;89.00
51739;DHT22;37815;52.692;6.226;2023-04-26T21:18:34;10.50;89.00
51739;DHT22;37815;52.692;6.226;2023-04-26T21:23:35;10.50;89.00
51739;DHT22;37815;52.692;6.226;2023-04-26T21:28:36;10.50;89.00
51739;DHT22;37815;52.692;6.226;2023-04-26T21:33:36;10.70;89.20
51739;DHT22;37815;52.692;6.226;2023-04-26T21:38:37;10.50;89.10
51739;DHT22;37815;52.692;6.226;2023-04-26T21:43:38;10.50;89.20
51739;DHT22;37815;52.692;6.226;2023-04-26T21:48:38;10.50;89.20
51739;DHT22;37815;52.692;6.226;2023-04-26T21:53:40;10.40;89.10
51739;DHT22;37815;52.692;6.226;2023-04-26T21:58:41;10.40;89.20
51739;DHT22;37815;52.692;6.226;2023-04-26T22:03:42;10.40;89.20
51739;DHT22;37815;52.692;6.226;2023-04-26T22:08:42;10.40;89.30
51739;DHT22;37815;52.692;6.226;2023-04-26T22:13:43;10.40;89.30
51739;DHT22;37815;52.692;6.226;2023-04-26T22:18:44;10.60;89.40
51739;DHT22;37815;52.692;6.226;2023-04-26T22:23:44;10.30;89.20
51739;DHT22;37815;52.692;6.226;2023-04-26T22:28:45;10.30;89.20
51739;DHT22;37815;52.692;6.226;2023-04-26T22:33:45;10.30;89.30
51739;DHT22;37815;52.692;6.226;2023-04-26T22:38:46;10.30;89.30
51739;DHT22;37815;52.692;6.226;2023-04-26T22:43:47;10.30;89.30
51739;DHT22;37815;52.692;6.226;2023-04-26T22:48:48;10.30;89.40
51739;DHT22;37815;52.692;6.226;2023-04-26T22:53:48;10.50;89.50
51739;DHT22;37815;52.692;6.226;2023-04-26T22:58:49;10.50;89.50
51739;DHT22;37815;52.692;6.226;2023-04-26T23:03:50;10.20;89.40
51739;DHT22;37815;52.692;6.226;2023-04-26T23:08:50;10.40;89.50
51739;DHT22;37815;52.692;6.226;2023-04-26T23:13:51;10.20;89.50
51739;DHT22;37815;52.692;6.226;2023-04-26T23:18:53;10.10;89.40
51739;DHT22;37815;52.692;6.226;2023-04-26T23:23:54;10.30;89.60
51739;DHT22;37815;52.692;6.226;2023-04-26T23:28:54;10.20;89.60
51739;DHT22;37815;52.692;6.226;2023-04-26T23:33:56;10.10;89.50
51739;DHT22;37815;52.692;6.226;2023-04-26T23:38:57;10.50;89.80
51739;DHT22;37815;52.692;6.226;2023-04-26T23:43:57;10.10;89.60
51739;DHT22;37815;52.692;6.226;2023-04-26T23:48:58;10.00;89.60
51739;DHT22;37815;52.692;6.226;2023-04-26T23:53:58;10.00;89.60
51739;DHT22;37815;52.692;6.226;2023-04-26T23:58:59;10.00;89.60
